AWW18RC EGPH-EGFF
Flight info
| Callsign | AWW18RC |
|---|---|
| Flight time | 0h 59m |
| Altitude | 23000 |
| Route | GOSAM P600 FENIK L612 ELBUS DCT SUBUK DCT NOKIN N862 KARNO DCT ALHUP DCT LUCSA N862 WEVBE |
| Aircraft | A319/M-SDE3FGHIRWY/LB1 |
Departure
| Time | 2026-04-22 14:55 |
|---|---|
| Airport | Edinburgh Airport (EGPH) |
Arrival
| Time | 2026-04-22 15:55 |
|---|---|
| Airport | Cardiff International Airport (EGFF) |
| Time | Latitude | Longitude | Altitude | Speed | Heading |
|---|---|---|---|---|---|
| 2026-04-22 14:37 | 55.94942 | -3.36359 | 113 ft | 0 kts | 148° |
| 2026-04-22 14:45 | 55.94947 | -3.36364 | 112 ft | 2 kts | 148° |
| 2026-04-22 14:46 | 55.94964 | -3.36382 | 113 ft | 3 kts | 148° |
| 2026-04-22 14:46 | 55.94981 | -3.36400 | 114 ft | 3 kts | 156° |
| 2026-04-22 14:46 | 55.94999 | -3.36410 | 115 ft | 3 kts | 187° |
| 2026-04-22 14:46 | 55.95012 | -3.36401 | 112 ft | 2 kts | 235° |
| 2026-04-22 14:47 | 55.95014 | -3.36395 | 112 ft | 0 kts | 238° |
| 2026-04-22 14:50 | 55.95013 | -3.36400 | 112 ft | 2 kts | 238° |
| 2026-04-22 14:50 | 55.94994 | -3.36455 | 114 ft | 8 kts | 238° |
| 2026-04-22 14:50 | 55.94954 | -3.36572 | 116 ft | 14 kts | 238° |
| 2026-04-22 14:50 | 55.94899 | -3.36743 | 115 ft | 18 kts | 252° |
| 2026-04-22 14:51 | 55.94913 | -3.36937 | 115 ft | 18 kts | 238° |
| 2026-04-22 14:51 | 55.94847 | -3.37131 | 113 ft | 18 kts | 239° |
| 2026-04-22 14:51 | 55.94781 | -3.37325 | 116 ft | 18 kts | 239° |
| 2026-04-22 14:51 | 55.94715 | -3.37519 | 116 ft | 18 kts | 239° |
| 2026-04-22 14:52 | 55.94649 | -3.37714 | 116 ft | 18 kts | 239° |
| 2026-04-22 14:52 | 55.94583 | -3.37911 | 114 ft | 19 kts | 239° |
| 2026-04-22 14:52 | 55.94515 | -3.38107 | 113 ft | 19 kts | 241° |
| 2026-04-22 14:52 | 55.94448 | -3.38307 | 115 ft | 19 kts | 239° |
| 2026-04-22 14:53 | 55.94382 | -3.38507 | 113 ft | 19 kts | 239° |
| 2026-04-22 14:53 | 55.94315 | -3.38707 | 115 ft | 19 kts | 239° |
| 2026-04-22 14:53 | 55.94298 | -3.38870 | 113 ft | 8 kts | 335° |
| 2026-04-22 14:53 | 55.94349 | -3.38932 | 113 ft | 11 kts | 324° |
| 2026-04-22 14:54 | 55.94422 | -3.38949 | 113 ft | 11 kts | 37° |
| 2026-04-22 14:54 | 55.94438 | -3.38907 | 114 ft | 1 kts | 58° |
| 2026-04-22 14:54 | 55.94442 | -3.38896 | 114 ft | 2 kts | 58° |
| 2026-04-22 14:54 | 55.94489 | -3.38756 | 112 ft | 40 kts | 59° |
| 2026-04-22 14:55 | 55.94770 | -3.37929 | 113 ft | 112 kts | 59° |
| 2026-04-22 14:55 | 55.95232 | -3.36560 | 527 ft | 127 kts | 58° |
| 2026-04-22 14:55 | 55.95657 | -3.35279 | 1349 ft | 110 kts | 61° |
| 2026-04-22 14:55 | 55.96106 | -3.34141 | 1835 ft | 119 kts | 51° |
| 2026-04-22 14:56 | 55.96770 | -3.33048 | 2121 ft | 141 kts | 47° |
| 2026-04-22 14:56 | 55.97557 | -3.31770 | 2375 ft | 169 kts | 46° |
| 2026-04-22 14:56 | 55.98514 | -3.30214 | 2691 ft | 198 kts | 45° |
| 2026-04-22 14:56 | 55.99633 | -3.28562 | 3126 ft | 224 kts | 33° |
| 2026-04-22 14:57 | 56.01255 | -3.28032 | 3604 ft | 259 kts | 354° |
| 2026-04-22 14:57 | 56.02903 | -3.29496 | 4339 ft | 276 kts | 315° |
| 2026-04-22 14:57 | 56.03844 | -3.32479 | 5223 ft | 281 kts | 279° |
| 2026-04-22 14:57 | 56.03820 | -3.35968 | 5818 ft | 280 kts | 256° |
| 2026-04-22 14:58 | 56.03260 | -3.39286 | 5977 ft | 278 kts | 245° |
| 2026-04-22 14:58 | 56.02540 | -3.42492 | 6016 ft | 279 kts | 245° |
| 2026-04-22 14:58 | 56.01829 | -3.45711 | 6010 ft | 279 kts | 247° |
| 2026-04-22 14:58 | 56.01186 | -3.48974 | 6011 ft | 278 kts | 249° |
| 2026-04-22 14:59 | 56.00613 | -3.52270 | 6010 ft | 279 kts | 249° |
| 2026-04-22 14:59 | 56.00094 | -3.55566 | 6009 ft | 279 kts | 252° |
| 2026-04-22 14:59 | 55.99596 | -3.58935 | 6012 ft | 282 kts | 251° |
| 2026-04-22 14:59 | 55.99111 | -3.62318 | 6015 ft | 280 kts | 254° |
| 2026-04-22 15:00 | 55.98633 | -3.65705 | 6303 ft | 284 kts | 252° |
| 2026-04-22 15:00 | 55.98146 | -3.69128 | 7355 ft | 285 kts | 253° |
| 2026-04-22 15:00 | 55.97656 | -3.72573 | 8322 ft | 288 kts | 251° |
| 2026-04-22 15:00 | 55.97157 | -3.76061 | 9278 ft | 290 kts | 252° |
| 2026-04-22 15:01 | 55.96653 | -3.79580 | 10218 ft | 296 kts | 251° |
| 2026-04-22 15:01 | 55.96115 | -3.83270 | 10601 ft | 319 kts | 252° |
| 2026-04-22 15:01 | 55.95539 | -3.87182 | 11217 ft | 330 kts | 251° |
| 2026-04-22 15:01 | 55.94954 | -3.91165 | 12081 ft | 333 kts | 252° |
| 2026-04-22 15:02 | 55.94370 | -3.95181 | 12954 ft | 336 kts | 252° |
| 2026-04-22 15:02 | 55.93614 | -3.99122 | 13804 ft | 336 kts | 241° |
| 2026-04-22 15:02 | 55.92381 | -4.02638 | 14595 ft | 335 kts | 226° |
| 2026-04-22 15:02 | 55.90726 | -4.05528 | 15348 ft | 334 kts | 215° |
| 2026-04-22 15:03 | 55.88814 | -4.07901 | 16122 ft | 335 kts | 212° |
| 2026-04-22 15:03 | 55.86883 | -4.10257 | 16923 ft | 336 kts | 212° |
| 2026-04-22 15:03 | 55.84942 | -4.12628 | 17639 ft | 341 kts | 213° |
| 2026-04-22 15:03 | 55.82977 | -4.15024 | 18304 ft | 346 kts | 213° |
| 2026-04-22 15:04 | 55.80986 | -4.17449 | 19000 ft | 348 kts | 214° |
| 2026-04-22 15:04 | 55.78985 | -4.19888 | 19673 ft | 349 kts | 215° |
| 2026-04-22 15:04 | 55.76978 | -4.22356 | 20260 ft | 353 kts | 216° |
| 2026-04-22 15:04 | 55.74810 | -4.24500 | 20759 ft | 361 kts | 204° |
| 2026-04-22 15:05 | 55.72372 | -4.25697 | 21347 ft | 369 kts | 191° |
| 2026-04-22 15:05 | 55.69779 | -4.25805 | 21904 ft | 379 kts | 177° |
| 2026-04-22 15:05 | 55.67184 | -4.24734 | 22434 ft | 389 kts | 162° |
| 2026-04-22 15:05 | 55.64691 | -4.22712 | 22958 ft | 397 kts | 156° |
| 2026-04-22 15:06 | 55.63064 | -4.21216 | 23288 ft | 401 kts | 155° |
| 2026-04-22 15:06 | 55.59794 | -4.17980 | 23453 ft | 397 kts | 153° |
| 2026-04-22 15:06 | 55.57450 | -4.15562 | 23460 ft | 385 kts | 153° |
| 2026-04-22 15:06 | 55.55923 | -4.13987 | 23457 ft | 382 kts | 153° |
| 2026-04-22 15:07 | 55.53620 | -4.11649 | 23448 ft | 381 kts | 154° |
| 2026-04-22 15:07 | 55.51319 | -4.09362 | 23449 ft | 380 kts | 154° |
| 2026-04-22 15:07 | 55.48978 | -4.07209 | 23441 ft | 377 kts | 161° |
| 2026-04-22 15:07 | 55.46554 | -4.05450 | 23447 ft | 377 kts | 162° |
| 2026-04-22 15:08 | 55.44128 | -4.03704 | 23437 ft | 376 kts | 161° |
| 2026-04-22 15:08 | 55.41705 | -4.01955 | 23442 ft | 377 kts | 161° |
| 2026-04-22 15:08 | 55.39283 | -4.00203 | 23438 ft | 376 kts | 161° |
| 2026-04-22 15:08 | 55.36860 | -3.98450 | 23449 ft | 376 kts | 161° |
| 2026-04-22 15:09 | 55.34439 | -3.96699 | 23458 ft | 376 kts | 161° |
| 2026-04-22 15:09 | 55.32018 | -3.94948 | 23455 ft | 376 kts | 161° |
| 2026-04-22 15:09 | 55.29599 | -3.93194 | 23452 ft | 377 kts | 161° |
| 2026-04-22 15:09 | 55.27178 | -3.91438 | 23457 ft | 376 kts | 161° |
| 2026-04-22 15:10 | 55.24756 | -3.89690 | 23448 ft | 376 kts | 161° |
| 2026-04-22 15:10 | 55.22335 | -3.87949 | 23451 ft | 376 kts | 161° |
| 2026-04-22 15:10 | 55.19913 | -3.86213 | 23440 ft | 376 kts | 161° |
| 2026-04-22 15:10 | 55.17492 | -3.84481 | 23430 ft | 376 kts | 161° |
| 2026-04-22 15:11 | 55.15070 | -3.82749 | 23439 ft | 376 kts | 161° |
| 2026-04-22 15:11 | 55.12648 | -3.81019 | 23434 ft | 376 kts | 161° |
| 2026-04-22 15:11 | 55.10227 | -3.79285 | 23428 ft | 376 kts | 161° |
| 2026-04-22 15:11 | 55.07808 | -3.77553 | 23435 ft | 376 kts | 161° |
| 2026-04-22 15:12 | 55.05421 | -3.75846 | 23436 ft | 376 kts | 161° |
| 2026-04-22 15:12 | 55.02999 | -3.74116 | 23440 ft | 376 kts | 161° |
| 2026-04-22 15:12 | 55.00574 | -3.72389 | 23445 ft | 376 kts | 161° |
| 2026-04-22 15:12 | 54.98150 | -3.70664 | 23443 ft | 376 kts | 161° |
| 2026-04-22 15:13 | 54.95727 | -3.68939 | 23447 ft | 376 kts | 161° |
| 2026-04-22 15:13 | 54.93302 | -3.67218 | 23436 ft | 377 kts | 161° |
| 2026-04-22 15:13 | 54.90875 | -3.65502 | 23441 ft | 377 kts | 161° |
| 2026-04-22 15:13 | 54.88447 | -3.63786 | 23438 ft | 377 kts | 161° |
| 2026-04-22 15:14 | 54.86018 | -3.62073 | 23442 ft | 377 kts | 161° |
| 2026-04-22 15:14 | 54.83592 | -3.60368 | 23444 ft | 376 kts | 161° |
| 2026-04-22 15:14 | 54.81164 | -3.58663 | 23444 ft | 376 kts | 161° |
| 2026-04-22 15:14 | 54.78735 | -3.56956 | 23440 ft | 376 kts | 161° |
| 2026-04-22 15:15 | 54.76298 | -3.55246 | 23436 ft | 376 kts | 161° |
| 2026-04-22 15:15 | 54.73873 | -3.53545 | 23437 ft | 376 kts | 161° |
| 2026-04-22 15:15 | 54.71445 | -3.51841 | 23437 ft | 376 kts | 161° |
| 2026-04-22 15:15 | 54.69021 | -3.50142 | 23426 ft | 376 kts | 160° |
| 2026-04-22 15:16 | 54.66590 | -3.48445 | 23428 ft | 376 kts | 161° |
| 2026-04-22 15:16 | 54.64164 | -3.46754 | 23433 ft | 376 kts | 161° |
| 2026-04-22 15:16 | 54.61740 | -3.45068 | 23436 ft | 376 kts | 161° |
| 2026-04-22 15:16 | 54.59313 | -3.43379 | 23437 ft | 376 kts | 161° |
| 2026-04-22 15:17 | 54.56888 | -3.41696 | 23439 ft | 376 kts | 161° |
| 2026-04-22 15:17 | 54.54461 | -3.40013 | 23440 ft | 376 kts | 161° |
| 2026-04-22 15:17 | 54.52036 | -3.38333 | 23440 ft | 376 kts | 161° |
| 2026-04-22 15:17 | 54.49610 | -3.36654 | 23434 ft | 376 kts | 161° |
| 2026-04-22 15:18 | 54.47185 | -3.34977 | 23431 ft | 376 kts | 161° |
| 2026-04-22 15:18 | 54.44763 | -3.33303 | 23421 ft | 375 kts | 161° |
| 2026-04-22 15:18 | 54.42341 | -3.31631 | 23423 ft | 375 kts | 161° |
| 2026-04-22 15:18 | 54.39917 | -3.29964 | 23414 ft | 375 kts | 162° |
| 2026-04-22 15:19 | 54.37459 | -3.28511 | 23407 ft | 372 kts | 170° |
| 2026-04-22 15:19 | 54.34929 | -3.27653 | 23406 ft | 371 kts | 173° |
| 2026-04-22 15:19 | 54.32424 | -3.26859 | 23406 ft | 371 kts | 173° |
| 2026-04-22 15:19 | 54.29889 | -3.26057 | 23400 ft | 371 kts | 172° |
| 2026-04-22 15:20 | 54.27353 | -3.25255 | 23403 ft | 371 kts | 173° |
| 2026-04-22 15:20 | 54.24781 | -3.24479 | 23402 ft | 370 kts | 173° |
| 2026-04-22 15:20 | 54.22270 | -3.23788 | 23402 ft | 370 kts | 174° |
| 2026-04-22 15:20 | 54.19723 | -3.23126 | 23387 ft | 370 kts | 174° |
| 2026-04-22 15:21 | 54.17174 | -3.22479 | 23395 ft | 370 kts | 173° |
| 2026-04-22 15:21 | 54.14624 | -3.21831 | 23400 ft | 370 kts | 175° |
| 2026-04-22 15:21 | 54.12078 | -3.21175 | 23403 ft | 370 kts | 173° |
| 2026-04-22 15:21 | 54.09533 | -3.20515 | 23396 ft | 370 kts | 173° |
| 2026-04-22 15:22 | 54.06989 | -3.19846 | 23395 ft | 370 kts | 174° |
| 2026-04-22 15:22 | 54.04446 | -3.19178 | 23395 ft | 370 kts | 174° |
| 2026-04-22 15:22 | 54.01903 | -3.18508 | 23392 ft | 370 kts | 173° |
| 2026-04-22 15:22 | 53.99364 | -3.17837 | 23385 ft | 370 kts | 173° |
| 2026-04-22 15:23 | 53.96822 | -3.17168 | 23380 ft | 370 kts | 175° |
| 2026-04-22 15:23 | 53.94281 | -3.16504 | 23374 ft | 369 kts | 173° |
| 2026-04-22 15:23 | 53.91742 | -3.15843 | 23378 ft | 369 kts | 173° |
| 2026-04-22 15:23 | 53.89205 | -3.15187 | 23378 ft | 369 kts | 173° |
| 2026-04-22 15:24 | 53.86668 | -3.14535 | 23378 ft | 369 kts | 174° |
| 2026-04-22 15:24 | 53.84132 | -3.13881 | 23378 ft | 368 kts | 174° |
| 2026-04-22 15:24 | 53.81601 | -3.13226 | 23366 ft | 369 kts | 173° |
| 2026-04-22 15:24 | 53.79065 | -3.12566 | 23361 ft | 369 kts | 175° |
| 2026-04-22 15:25 | 53.76524 | -3.11905 | 23360 ft | 370 kts | 173° |
| 2026-04-22 15:25 | 53.73981 | -3.11244 | 23361 ft | 370 kts | 173° |
| 2026-04-22 15:25 | 53.71436 | -3.10584 | 23360 ft | 370 kts | 173° |
| 2026-04-22 15:25 | 53.68891 | -3.09927 | 23356 ft | 370 kts | 173° |
| 2026-04-22 15:26 | 53.66344 | -3.09268 | 23358 ft | 370 kts | 174° |
| 2026-04-22 15:26 | 53.63795 | -3.08611 | 23361 ft | 370 kts | 172° |
| 2026-04-22 15:26 | 53.61248 | -3.07961 | 23363 ft | 370 kts | 174° |
| 2026-04-22 15:26 | 53.58699 | -3.07311 | 23367 ft | 370 kts | 173° |
| 2026-04-22 15:27 | 53.56152 | -3.06658 | 23377 ft | 370 kts | 172° |
| 2026-04-22 15:27 | 53.53607 | -3.06003 | 23371 ft | 370 kts | 173° |
| 2026-04-22 15:27 | 53.51060 | -3.05352 | 23370 ft | 370 kts | 174° |
| 2026-04-22 15:27 | 53.48509 | -3.04704 | 23377 ft | 370 kts | 174° |
| 2026-04-22 15:28 | 53.45960 | -3.04059 | 23366 ft | 370 kts | 173° |
| 2026-04-22 15:28 | 53.43411 | -3.03414 | 23370 ft | 371 kts | 173° |
| 2026-04-22 15:28 | 53.40864 | -3.02766 | 23371 ft | 370 kts | 173° |
| 2026-04-22 15:28 | 53.38316 | -3.02114 | 23375 ft | 370 kts | 173° |
| 2026-04-22 15:29 | 53.35772 | -3.01460 | 23375 ft | 370 kts | 173° |
| 2026-04-22 15:29 | 53.33219 | -3.00810 | 23376 ft | 371 kts | 174° |
| 2026-04-22 15:29 | 53.30670 | -3.00167 | 23373 ft | 371 kts | 173° |
| 2026-04-22 15:30 | 53.25601 | -2.98890 | 23346 ft | 371 kts | 173° |
| 2026-04-22 15:30 | 53.23050 | -2.98248 | 23349 ft | 371 kts | 173° |
| 2026-04-22 15:30 | 53.20501 | -2.97608 | 23350 ft | 371 kts | 173° |
| 2026-04-22 15:30 | 53.17950 | -2.96966 | 23351 ft | 371 kts | 173° |
| 2026-04-22 15:31 | 53.15402 | -2.96324 | 23353 ft | 371 kts | 173° |
| 2026-04-22 15:31 | 53.12850 | -2.95682 | 23350 ft | 371 kts | 173° |
| 2026-04-22 15:31 | 53.10302 | -2.95045 | 23356 ft | 371 kts | 173° |
| 2026-04-22 15:31 | 53.07751 | -2.94409 | 23352 ft | 371 kts | 173° |
| 2026-04-22 15:32 | 53.05201 | -2.93775 | 23356 ft | 370 kts | 173° |
| 2026-04-22 15:32 | 53.02653 | -2.93140 | 23355 ft | 370 kts | 173° |
| 2026-04-22 15:32 | 53.00106 | -2.92501 | 23354 ft | 370 kts | 173° |
| 2026-04-22 15:32 | 52.97559 | -2.91861 | 23352 ft | 370 kts | 173° |
| 2026-04-22 15:33 | 52.95008 | -2.91222 | 23347 ft | 370 kts | 172° |
| 2026-04-22 15:33 | 52.92461 | -2.90583 | 23351 ft | 370 kts | 173° |
| 2026-04-22 15:33 | 52.89906 | -2.90083 | 23349 ft | 369 kts | 179° |
| 2026-04-22 15:33 | 52.87354 | -2.90311 | 23351 ft | 367 kts | 190° |
| 2026-04-22 15:34 | 52.84826 | -2.90923 | 23355 ft | 367 kts | 189° |
| 2026-04-22 15:34 | 52.82296 | -2.91527 | 23348 ft | 367 kts | 189° |
| 2026-04-22 15:34 | 52.79770 | -2.92122 | 23347 ft | 367 kts | 189° |
| 2026-04-22 15:34 | 52.77240 | -2.92718 | 23348 ft | 367 kts | 189° |
| 2026-04-22 15:35 | 52.75564 | -2.93112 | 23344 ft | 367 kts | 190° |
| 2026-04-22 15:35 | 52.72187 | -2.93904 | 23335 ft | 367 kts | 189° |
| 2026-04-22 15:35 | 52.69642 | -2.94264 | 23339 ft | 367 kts | 184° |
| 2026-04-22 15:35 | 52.67089 | -2.94467 | 23342 ft | 367 kts | 184° |
| 2026-04-22 15:36 | 52.64539 | -2.94670 | 23346 ft | 367 kts | 184° |
| 2026-04-22 15:36 | 52.61989 | -2.94876 | 23343 ft | 367 kts | 183° |
| 2026-04-22 15:36 | 52.59441 | -2.95085 | 23343 ft | 367 kts | 184° |
| 2026-04-22 15:36 | 52.56891 | -2.95297 | 23342 ft | 367 kts | 184° |
| 2026-04-22 15:37 | 52.54347 | -2.95509 | 23337 ft | 367 kts | 184° |
| 2026-04-22 15:37 | 52.51802 | -2.95716 | 23232 ft | 365 kts | 184° |
| 2026-04-22 15:37 | 52.49273 | -2.95922 | 22719 ft | 363 kts | 184° |
| 2026-04-22 15:37 | 52.46764 | -2.96130 | 22275 ft | 359 kts | 184° |
| 2026-04-22 15:38 | 52.44277 | -2.96340 | 21840 ft | 356 kts | 184° |
| 2026-04-22 15:38 | 52.39399 | -2.96750 | 20978 ft | 351 kts | 183° |
| 2026-04-22 15:38 | 52.36967 | -2.96949 | 20555 ft | 349 kts | 183° |
| 2026-04-22 15:39 | 52.34553 | -2.97145 | 20139 ft | 346 kts | 183° |
| 2026-04-22 15:39 | 52.32153 | -2.97339 | 19711 ft | 344 kts | 183° |
| 2026-04-22 15:39 | 52.29770 | -2.97533 | 19296 ft | 342 kts | 183° |
| 2026-04-22 15:39 | 52.27401 | -2.97726 | 18883 ft | 340 kts | 183° |
| 2026-04-22 15:40 | 52.25040 | -2.97916 | 18455 ft | 339 kts | 182° |
| 2026-04-22 15:40 | 52.22690 | -2.98101 | 18016 ft | 336 kts | 182° |
| 2026-04-22 15:40 | 52.20364 | -2.98286 | 17614 ft | 333 kts | 182° |
| 2026-04-22 15:40 | 52.18060 | -2.98472 | 17217 ft | 330 kts | 182° |
| 2026-04-22 15:41 | 52.15774 | -2.98658 | 16826 ft | 328 kts | 181° |
| 2026-04-22 15:41 | 52.13504 | -2.98847 | 16433 ft | 325 kts | 182° |
| 2026-04-22 15:41 | 52.11254 | -2.99035 | 16168 ft | 320 kts | 181° |
| 2026-04-22 15:41 | 52.09066 | -2.99217 | 16088 ft | 312 kts | 182° |
| 2026-04-22 15:42 | 52.06896 | -2.99395 | 15974 ft | 310 kts | 181° |
| 2026-04-22 15:42 | 52.04748 | -2.99571 | 15843 ft | 309 kts | 182° |
| 2026-04-22 15:42 | 52.02601 | -2.99745 | 15763 ft | 310 kts | 182° |
| 2026-04-22 15:42 | 52.00455 | -2.99917 | 15657 ft | 309 kts | 181° |
| 2026-04-22 15:43 | 51.98310 | -3.00089 | 15545 ft | 309 kts | 181° |
| 2026-04-22 15:43 | 51.96159 | -3.00259 | 15437 ft | 307 kts | 181° |
| 2026-04-22 15:43 | 51.94034 | -3.00450 | 15219 ft | 308 kts | 182° |
| 2026-04-22 15:43 | 51.91877 | -3.00750 | 14678 ft | 313 kts | 183° |
| 2026-04-22 15:44 | 51.89696 | -3.01121 | 14189 ft | 317 kts | 185° |
| 2026-04-22 15:44 | 51.87500 | -3.01521 | 13690 ft | 317 kts | 184° |
| 2026-04-22 15:44 | 51.85310 | -3.01922 | 13200 ft | 317 kts | 184° |
| 2026-04-22 15:44 | 51.83121 | -3.02310 | 12773 ft | 315 kts | 183° |
| 2026-04-22 15:45 | 51.80955 | -3.02680 | 12333 ft | 313 kts | 182° |
| 2026-04-22 15:45 | 51.78810 | -3.03040 | 12056 ft | 306 kts | 182° |
| 2026-04-22 15:45 | 51.76706 | -3.03391 | 11625 ft | 304 kts | 183° |
| 2026-04-22 15:45 | 51.74611 | -3.03956 | 11205 ft | 307 kts | 192° |
| 2026-04-22 15:46 | 51.72680 | -3.05309 | 11071 ft | 299 kts | 204° |
| 2026-04-22 15:46 | 51.70883 | -3.06898 | 10858 ft | 292 kts | 207° |
| 2026-04-22 15:46 | 51.69307 | -3.08919 | 10539 ft | 296 kts | 221° |
| 2026-04-22 15:46 | 51.67980 | -3.11469 | 10157 ft | 297 kts | 225° |
| 2026-04-22 15:47 | 51.66681 | -3.14051 | 9725 ft | 295 kts | 226° |
| 2026-04-22 15:47 | 51.65390 | -3.16609 | 9288 ft | 293 kts | 225° |
| 2026-04-22 15:47 | 51.64101 | -3.19150 | 8836 ft | 292 kts | 225° |
| 2026-04-22 15:47 | 51.62831 | -3.21659 | 8256 ft | 288 kts | 225° |
| 2026-04-22 15:48 | 51.61572 | -3.24144 | 7639 ft | 285 kts | 225° |
| 2026-04-22 15:48 | 51.60326 | -3.26601 | 6972 ft | 282 kts | 225° |
| 2026-04-22 15:48 | 51.59089 | -3.29033 | 6363 ft | 279 kts | 225° |
| 2026-04-22 15:48 | 51.57859 | -3.31447 | 5671 ft | 279 kts | 225° |
| 2026-04-22 15:49 | 51.56624 | -3.33865 | 5056 ft | 282 kts | 225° |
| 2026-04-22 15:49 | 51.55374 | -3.36306 | 4518 ft | 284 kts | 226° |
| 2026-04-22 15:49 | 51.54121 | -3.38761 | 3984 ft | 286 kts | 225° |
| 2026-04-22 15:49 | 51.52842 | -3.41262 | 3449 ft | 286 kts | 226° |
| 2026-04-22 15:50 | 51.51626 | -3.43650 | 3280 ft | 266 kts | 225° |
| 2026-04-22 15:50 | 51.50503 | -3.45866 | 3157 ft | 246 kts | 225° |
| 2026-04-22 15:50 | 51.49459 | -3.47921 | 3047 ft | 231 kts | 224° |
| 2026-04-22 15:50 | 51.48445 | -3.49892 | 2942 ft | 227 kts | 222° |
| 2026-04-22 15:51 | 51.47197 | -3.51248 | 2854 ft | 209 kts | 187° |
| 2026-04-22 15:51 | 51.45863 | -3.51266 | 2766 ft | 181 kts | 158° |
| 2026-04-22 15:51 | 51.44801 | -3.50283 | 2306 ft | 177 kts | 130° |
| 2026-04-22 15:51 | 51.44167 | -3.48738 | 2178 ft | 153 kts | 115° |
| 2026-04-22 15:52 | 51.43717 | -3.47336 | 2178 ft | 133 kts | 114° |
| 2026-04-22 15:52 | 51.43317 | -3.46052 | 2179 ft | 126 kts | 114° |
| 2026-04-22 15:52 | 51.42936 | -3.44799 | 2080 ft | 128 kts | 114° |
| 2026-04-22 15:52 | 51.42485 | -3.43429 | 1569 ft | 140 kts | 115° |
| 2026-04-22 15:53 | 51.42078 | -3.42099 | 1375 ft | 128 kts | 116° |
| 2026-04-22 15:53 | 51.41672 | -3.40874 | 1091 ft | 123 kts | 115° |
| 2026-04-22 15:53 | 51.41304 | -3.39624 | 875 ft | 122 kts | 112° |
| 2026-04-22 15:53 | 51.40940 | -3.38381 | 638 ft | 122 kts | 116° |
| 2026-04-22 15:54 | 51.40550 | -3.37193 | 491 ft | 124 kts | 116° |
| 2026-04-22 15:54 | 51.40180 | -3.35970 | 309 ft | 124 kts | 114° |
| 2026-04-22 15:54 | 51.39803 | -3.34803 | 222 ft | 107 kts | 111° |
| 2026-04-22 15:54 | 51.39612 | -3.34168 | 223 ft | 78 kts | 116° |
| 2026-04-22 15:55 | 51.39445 | -3.33645 | 223 ft | 29 kts | 117° |
| 2026-04-22 15:55 | 51.39319 | -3.33250 | 222 ft | 30 kts | 116° |
| 2026-04-22 15:55 | 51.39322 | -3.33094 | 222 ft | 8 kts | 27° |
| 2026-04-22 15:55 | 51.39379 | -3.33046 | 221 ft | 11 kts | 27° |
| 2026-04-22 15:56 | 51.39449 | -3.33088 | 220 ft | 12 kts | 307° |
| 2026-04-22 15:56 | 51.39477 | -3.33162 | 222 ft | 11 kts | 298° |
| 2026-04-22 15:56 | 51.39512 | -3.33273 | 223 ft | 12 kts | 296° |
| 2026-04-22 15:56 | 51.39553 | -3.33402 | 220 ft | 14 kts | 297° |
| 2026-04-22 15:57 | 51.39598 | -3.33544 | 221 ft | 15 kts | 297° |
| 2026-04-22 15:57 | 51.39646 | -3.33694 | 222 ft | 15 kts | 297° |
| 2026-04-22 15:57 | 51.39690 | -3.33833 | 222 ft | 14 kts | 296° |
| 2026-04-22 15:57 | 51.39734 | -3.33975 | 221 ft | 15 kts | 296° |
| 2026-04-22 15:58 | 51.39781 | -3.34125 | 223 ft | 15 kts | 296° |
| 2026-04-22 15:58 | 51.39822 | -3.34256 | 221 ft | 9 kts | 296° |
| 2026-04-22 15:58 | 51.39834 | -3.34288 | 223 ft | 0 kts | 310° |
| 2026-04-22 15:58 | 51.39844 | -3.34296 | 224 ft | 3 kts | 342° |
| 2026-04-22 15:59 | 51.39894 | -3.34263 | 223 ft | 11 kts | 27° |
| 2026-04-22 15:59 | 51.39921 | -3.34199 | 222 ft | 6 kts | 105° |
| 2026-04-22 15:59 | 51.39913 | -3.34165 | 221 ft | 0 kts | 118° |
| 2026-04-22 15:59 | 51.39912 | -3.34161 | 221 ft | 1 kts | 117° |
| 2026-04-22 16:00 | 51.39912 | -3.34160 | 221 ft | 0 kts | 117° |